sensor_id;sensor_type;location;lat;lon;timestamp;pressure;altitude;pressure_sealevel;temperature;humidity
55517;BME280;41724;51.176;-0.708;2023-06-14T00:01:44;101149.26;;;18.44;43.05
55517;BME280;41724;51.176;-0.708;2023-06-14T00:04:11;101151.13;;;18.49;43.32
55517;BME280;41724;51.176;-0.708;2023-06-14T00:06:38;101155.00;;;18.18;43.29
55517;BME280;41724;51.176;-0.708;2023-06-14T00:09:05;101158.71;;;18.40;43.16
55517;BME280;41724;51.176;-0.708;2023-06-14T00:11:34;101159.44;;;18.12;43.60
55517;BME280;41724;51.176;-0.708;2023-06-14T00:14:01;101157.56;;;18.27;43.53
55517;BME280;41724;51.176;-0.708;2023-06-14T00:16:29;101156.99;;;18.30;43.20
55517;BME280;41724;51.176;-0.708;2023-06-14T00:18:56;101157.33;;;17.73;43.46
55517;BME280;41724;51.176;-0.708;2023-06-14T00:21:23;101157.92;;;17.89;43.51
55517;BME280;41724;51.176;-0.708;2023-06-14T00:23:50;101156.95;;;17.90;43.30
55517;BME280;41724;51.176;-0.708;2023-06-14T00:26:18;101154.69;;;17.70;43.51
55517;BME280;41724;51.176;-0.708;2023-06-14T00:28:45;101151.92;;;17.49;43.61
55517;BME280;41724;51.176;-0.708;2023-06-14T00:31:12;101152.55;;;17.46;43.50
55517;BME280;41724;51.176;-0.708;2023-06-14T00:33:40;101153.50;;;17.41;43.48
55517;BME280;41724;51.176;-0.708;2023-06-14T00:36:06;101156.54;;;17.24;43.77
55517;BME280;41724;51.176;-0.708;2023-06-14T00:38:33;101157.74;;;17.47;44.33
55517;BME280;41724;51.176;-0.708;2023-06-14T00:41:00;101155.63;;;17.26;44.20
55517;BME280;41724;51.176;-0.708;2023-06-14T00:43:28;101155.31;;;17.27;44.12
55517;BME280;41724;51.176;-0.708;2023-06-14T00:45:55;101154.44;;;16.87;44.19
55517;BME280;41724;51.176;-0.708;2023-06-14T00:48:22;101157.99;;;17.25;44.24
55517;BME280;41724;51.176;-0.708;2023-06-14T00:50:50;101161.16;;;16.48;45.04
55517;BME280;41724;51.176;-0.708;2023-06-14T00:53:19;101158.23;;;16.75;44.82
55517;BME280;41724;51.176;-0.708;2023-06-14T00:55:46;101158.53;;;16.60;44.57
55517;BME280;41724;51.176;-0.708;2023-06-14T00:58:14;101158.50;;;16.36;44.50
55517;BME280;41724;51.176;-0.708;2023-06-14T01:00:41;101154.70;;;16.61;44.80
55517;BME280;41724;51.176;-0.708;2023-06-14T01:03:08;101153.84;;;16.53;44.89
55517;BME280;41724;51.176;-0.708;2023-06-14T01:05:35;101142.27;;;16.80;44.43
55517;BME280;41724;51.176;-0.708;2023-06-14T01:08:14;101144.27;;;16.51;44.86
55517;BME280;41724;51.176;-0.708;2023-06-14T01:10:51;101145.07;;;16.27;44.81
55517;BME280;41724;51.176;-0.708;2023-06-14T01:13:23;101145.00;;;16.49;45.24
55517;BME280;41724;51.176;-0.708;2023-06-14T01:15:52;101147.36;;;16.04;45.69
55517;BME280;41724;51.176;-0.708;2023-06-14T01:18:19;101148.99;;;16.20;45.46
55517;BME280;41724;51.176;-0.708;2023-06-14T01:20:47;101150.17;;;16.14;45.38
55517;BME280;41724;51.176;-0.708;2023-06-14T01:23:14;101151.08;;;15.92;45.56
55517;BME280;41724;51.176;-0.708;2023-06-14T01:25:41;101153.53;;;15.89;45.55
55517;BME280;41724;51.176;-0.708;2023-06-14T01:28:09;101151.60;;;16.05;44.94
55517;BME280;41724;51.176;-0.708;2023-06-14T01:30:38;101157.91;;;15.72;45.26
55517;BME280;41724;51.176;-0.708;2023-06-14T01:33:05;101158.02;;;15.52;45.48
55517;BME280;41724;51.176;-0.708;2023-06-14T01:35:33;101160.34;;;15.79;44.80
55517;BME280;41724;51.176;-0.708;2023-06-14T01:38:00;101161.99;;;15.63;45.15
55517;BME280;41724;51.176;-0.708;2023-06-14T01:40:31;101165.14;;;15.45;45.32
55517;BME280;41724;51.176;-0.708;2023-06-14T01:43:00;101162.69;;;15.90;45.14
55517;BME280;41724;51.176;-0.708;2023-06-14T01:45:29;101162.28;;;15.38;45.50
55517;BME280;41724;51.176;-0.708;2023-06-14T01:47:57;101161.03;;;15.48;45.46
55517;BME280;41724;51.176;-0.708;2023-06-14T01:50:28;101157.63;;;15.51;45.76
55517;BME280;41724;51.176;-0.708;2023-06-14T01:52:56;101158.15;;;15.46;45.69
55517;BME280;41724;51.176;-0.708;2023-06-14T01:55:25;101155.71;;;15.22;45.81
55517;BME280;41724;51.176;-0.708;2023-06-14T01:57:52;101153.32;;;15.68;45.76
55517;BME280;41724;51.176;-0.708;2023-06-14T02:00:20;101150.42;;;15.62;44.94
55517;BME280;41724;51.176;-0.708;2023-06-14T02:02:47;101147.80;;;15.30;46.03
55517;BME280;41724;51.176;-0.708;2023-06-14T02:05:14;101150.22;;;15.22;45.47
55517;BME280;41724;51.176;-0.708;2023-06-14T02:07:41;101150.24;;;15.48;44.74
55517;BME280;41724;51.176;-0.708;2023-06-14T02:10:09;101150.99;;;15.79;44.93
55517;BME280;41724;51.176;-0.708;2023-06-14T02:12:36;101153.89;;;15.25;44.29
55517;BME280;41724;51.176;-0.708;2023-06-14T02:15:03;101157.70;;;15.73;43.97
55517;BME280;41724;51.176;-0.708;2023-06-14T02:17:31;101158.83;;;15.70;43.84
55517;BME280;41724;51.176;-0.708;2023-06-14T02:19:58;101155.31;;;15.54;43.31
55517;BME280;41724;51.176;-0.708;2023-06-14T02:22:25;101155.01;;;15.20;43.40
55517;BME280;41724;51.176;-0.708;2023-06-14T02:24:52;101152.99;;;15.72;43.38
55517;BME280;41724;51.176;-0.708;2023-06-14T02:27:19;101153.36;;;15.34;43.54
55517;BME280;41724;51.176;-0.708;2023-06-14T02:29:46;101153.24;;;15.17;43.17
55517;BME280;41724;51.176;-0.708;2023-06-14T02:32:13;101149.20;;;15.21;43.81
55517;BME280;41724;51.176;-0.708;2023-06-14T02:34:40;101151.23;;;14.85;43.25
55517;BME280;41724;51.176;-0.708;2023-06-14T02:37:07;101150.39;;;15.59;42.62
55517;BME280;41724;51.176;-0.708;2023-06-14T02:39:35;101152.76;;;15.53;41.86
55517;BME280;41724;51.176;-0.708;2023-06-14T02:42:02;101152.73;;;15.34;42.45
55517;BME280;41724;51.176;-0.708;2023-06-14T02:44:29;101153.19;;;15.51;42.08
55517;BME280;41724;51.176;-0.708;2023-06-14T02:46:57;101148.92;;;15.43;42.14
55517;BME280;41724;51.176;-0.708;2023-06-14T02:49:24;101148.90;;;15.40;41.32
55517;BME280;41724;51.176;-0.708;2023-06-14T02:51:51;101148.73;;;15.47;41.43
55517;BME280;41724;51.176;-0.708;2023-06-14T02:54:18;101151.65;;;15.58;41.27
55517;BME280;41724;51.176;-0.708;2023-06-14T02:56:45;101155.30;;;15.70;41.13
55517;BME280;41724;51.176;-0.708;2023-06-14T02:59:12;101157.64;;;15.36;40.25
55517;BME280;41724;51.176;-0.708;2023-06-14T03:01:39;101153.21;;;15.19;40.99
55517;BME280;41724;51.176;-0.708;2023-06-14T03:04:07;101157.98;;;15.32;40.92
55517;BME280;41724;51.176;-0.708;2023-06-14T03:06:34;101157.71;;;15.55;41.14
55517;BME280;41724;51.176;-0.708;2023-06-14T03:09:01;101158.31;;;15.36;40.54
55517;BME280;41724;51.176;-0.708;2023-06-14T03:11:28;101159.00;;;15.73;40.66
55517;BME280;41724;51.176;-0.708;2023-06-14T03:13:55;101155.06;;;15.68;40.61
55517;BME280;41724;51.176;-0.708;2023-06-14T03:16:22;101155.14;;;15.28;40.37
55517;BME280;41724;51.176;-0.708;2023-06-14T03:18:51;101157.68;;;15.68;40.46
55517;BME280;41724;51.176;-0.708;2023-06-14T03:21:18;101156.30;;;15.61;40.74
55517;BME280;41724;51.176;-0.708;2023-06-14T03:23:45;101154.19;;;15.43;40.57
55517;BME280;41724;51.176;-0.708;2023-06-14T03:26:12;101154.15;;;15.71;41.20
55517;BME280;41724;51.176;-0.708;2023-06-14T03:28:39;101151.41;;;15.56;41.23
55517;BME280;41724;51.176;-0.708;2023-06-14T03:31:11;101153.61;;;15.55;41.29
55517;BME280;41724;51.176;-0.708;2023-06-14T03:33:38;101153.63;;;15.40;41.38
55517;BME280;41724;51.176;-0.708;2023-06-14T03:36:06;101159.48;;;15.75;41.34
55517;BME280;41724;51.176;-0.708;2023-06-14T03:38:34;101161.55;;;15.40;41.34
55517;BME280;41724;51.176;-0.708;2023-06-14T03:41:02;101162.05;;;15.31;41.35
55517;BME280;41724;51.176;-0.708;2023-06-14T03:43:30;101163.46;;;15.89;41.06
55517;BME280;41724;51.176;-0.708;2023-06-14T03:45:57;101166.43;;;15.19;41.68
55517;BME280;41724;51.176;-0.708;2023-06-14T03:48:24;101168.10;;;15.39;41.68
55517;BME280;41724;51.176;-0.708;2023-06-14T03:50:51;101170.31;;;15.65;41.87
55517;BME280;41724;51.176;-0.708;2023-06-14T03:53:18;101172.16;;;15.48;41.51
55517;BME280;41724;51.176;-0.708;2023-06-14T03:55:45;101172.10;;;15.75;41.56
55517;BME280;41724;51.176;-0.708;2023-06-14T03:58:12;101173.92;;;15.85;41.53
55517;BME280;41724;51.176;-0.708;2023-06-14T04:00:39;101173.37;;;15.71;41.06
55517;BME280;41724;51.176;-0.708;2023-06-14T04:03:06;101172.48;;;15.74;41.15
55517;BME280;41724;51.176;-0.708;2023-06-14T04:05:34;101177.28;;;16.33;41.03
55517;BME280;41724;51.176;-0.708;2023-06-14T04:08:01;101176.60;;;15.84;41.19
55517;BME280;41724;51.176;-0.708;2023-06-14T04:10:27;101175.85;;;16.06;41.19
55517;BME280;41724;51.176;-0.708;2023-06-14T04:12:54;101172.18;;;16.21;41.17
55517;BME280;41724;51.176;-0.708;2023-06-14T04:15:21;101172.51;;;16.19;41.17
55517;BME280;41724;51.176;-0.708;2023-06-14T04:17:48;101172.07;;;15.84;41.32
55517;BME280;41724;51.176;-0.708;2023-06-14T04:20:15;101172.59;;;15.76;41.34
55517;BME280;41724;51.176;-0.708;2023-06-14T04:22:43;101169.85;;;15.89;41.70
55517;BME280;41724;51.176;-0.708;2023-06-14T04:25:10;101168.46;;;16.01;41.57
55517;BME280;41724;51.176;-0.708;2023-06-14T04:27:37;101163.51;;;16.13;41.46
55517;BME280;41724;51.176;-0.708;2023-06-14T04:30:06;101165.04;;;16.38;42.06
55517;BME280;41724;51.176;-0.708;2023-06-14T04:32:33;101171.53;;;15.83;42.78
55517;BME280;41724;51.176;-0.708;2023-06-14T04:35:06;101170.98;;;16.05;43.08
55517;BME280;41724;51.176;-0.708;2023-06-14T04:37:33;101168.82;;;16.07;43.10
55517;BME280;41724;51.176;-0.708;2023-06-14T04:40:00;101170.48;;;16.13;43.70
55517;BME280;41724;51.176;-0.708;2023-06-14T04:42:27;101174.62;;;15.80;43.96
55517;BME280;41724;51.176;-0.708;2023-06-14T04:44:54;101177.81;;;16.13;44.33
55517;BME280;41724;51.176;-0.708;2023-06-14T04:47:21;101182.57;;;16.24;44.56
55517;BME280;41724;51.176;-0.708;2023-06-14T04:49:48;101185.37;;;16.42;44.71
55517;BME280;41724;51.176;-0.708;2023-06-14T04:52:20;101185.78;;;16.27;45.09
55517;BME280;41724;51.176;-0.708;2023-06-14T04:54:48;101185.54;;;16.29;45.69
55517;BME280;41724;51.176;-0.708;2023-06-14T04:57:15;101180.41;;;16.63;45.28
55517;BME280;41724;51.176;-0.708;2023-06-14T04:59:42;101182.85;;;16.63;45.75
55517;BME280;41724;51.176;-0.708;2023-06-14T05:02:09;101184.74;;;16.88;45.71
55517;BME280;41724;51.176;-0.708;2023-06-14T05:04:36;101184.89;;;16.72;45.74
55517;BME280;41724;51.176;-0.708;2023-06-14T05:07:03;101187.65;;;16.86;46.01
55517;BME280;41724;51.176;-0.708;2023-06-14T05:09:30;101187.52;;;16.83;46.01
55517;BME280;41724;51.176;-0.708;2023-06-14T05:11:57;101187.66;;;16.42;46.37
55517;BME280;41724;51.176;-0.708;2023-06-14T05:14:24;101191.99;;;16.96;46.32
55517;BME280;41724;51.176;-0.708;2023-06-14T05:16:51;101195.37;;;16.73;47.08
55517;BME280;41724;51.176;-0.708;2023-06-14T05:19:19;101193.71;;;16.77;47.44
55517;BME280;41724;51.176;-0.708;2023-06-14T05:21:47;101194.32;;;16.53;48.16
55517;BME280;41724;51.176;-0.708;2023-06-14T05:24:14;101195.85;;;17.14;47.94
55517;BME280;41724;51.176;-0.708;2023-06-14T05:26:41;101191.21;;;16.69;48.48
55517;BME280;41724;51.176;-0.708;2023-06-14T05:29:09;101189.60;;;16.71;48.29
55517;BME280;41724;51.176;-0.708;2023-06-14T05:31:36;101185.53;;;16.94;48.09
55517;BME280;41724;51.176;-0.708;2023-06-14T05:34:03;101181.75;;;17.48;47.56
55517;BME280;41724;51.176;-0.708;2023-06-14T05:36:30;101179.80;;;17.69;47.49
55517;BME280;41724;51.176;-0.708;2023-06-14T05:38:57;101180.57;;;17.80;47.47
55517;BME280;41724;51.176;-0.708;2023-06-14T05:41:24;101182.18;;;17.39;47.88
55517;BME280;41724;51.176;-0.708;2023-06-14T05:43:51;101182.26;;;17.63;47.36
55517;BME280;41724;51.176;-0.708;2023-06-14T05:46:18;101180.47;;;17.82;47.26
55517;BME280;41724;51.176;-0.708;2023-06-14T05:48:44;101180.87;;;16.95;49.63
55517;BME280;41724;51.176;-0.708;2023-06-14T05:51:12;101180.71;;;17.46;48.89
55517;BME280;41724;51.176;-0.708;2023-06-14T05:53:39;101183.07;;;17.22;49.71
55517;BME280;41724;51.176;-0.708;2023-06-14T05:56:06;101183.30;;;17.50;49.27
55517;BME280;41724;51.176;-0.708;2023-06-14T05:58:33;101184.48;;;16.95;50.62
55517;BME280;41724;51.176;-0.708;2023-06-14T06:01:00;101181.19;;;17.49;49.98
55517;BME280;41724;51.176;-0.708;2023-06-14T06:03:26;101179.74;;;17.79;49.64
55517;BME280;41724;51.176;-0.708;2023-06-14T06:05:53;101179.23;;;17.72;49.70
55517;BME280;41724;51.176;-0.708;2023-06-14T06:08:20;101184.02;;;17.45;50.14
55517;BME280;41724;51.176;-0.708;2023-06-14T06:10:47;101183.86;;;18.02;49.10
55517;BME280;41724;51.176;-0.708;2023-06-14T06:13:14;101187.48;;;18.02;48.68
55517;BME280;41724;51.176;-0.708;2023-06-14T06:15:42;101192.21;;;17.67;48.88
55517;BME280;41724;51.176;-0.708;2023-06-14T06:18:09;101193.59;;;18.04;48.60
55517;BME280;41724;51.176;-0.708;2023-06-14T06:20:36;101192.66;;;17.94;48.92
55517;BME280;41724;51.176;-0.708;2023-06-14T06:23:02;101195.67;;;17.93;50.49
55517;BME280;41724;51.176;-0.708;2023-06-14T06:25:30;101196.38;;;17.61;50.44
55517;BME280;41724;51.176;-0.708;2023-06-14T06:27:57;101197.34;;;17.71;50.23
55517;BME280;41724;51.176;-0.708;2023-06-14T06:30:25;101199.58;;;17.70;50.38
55517;BME280;41724;51.176;-0.708;2023-06-14T06:32:51;101199.40;;;18.07;49.49
55517;BME280;41724;51.176;-0.708;2023-06-14T06:35:19;101205.53;;;18.61;49.32
55517;BME280;41724;51.176;-0.708;2023-06-14T06:37:51;101207.77;;;18.21;49.49
55517;BME280;41724;51.176;-0.708;2023-06-14T06:40:18;101206.40;;;17.55;51.39
55517;BME280;41724;51.176;-0.708;2023-06-14T06:42:45;101209.45;;;17.98;51.43
55517;BME280;41724;51.176;-0.708;2023-06-14T06:45:12;101210.91;;;16.47;53.86
55517;BME280;41724;51.176;-0.708;2023-06-14T06:47:39;101210.89;;;17.69;51.90
55517;BME280;41724;51.176;-0.708;2023-06-14T06:50:07;101216.86;;;18.61;50.43
55517;BME280;41724;51.176;-0.708;2023-06-14T06:52:34;101216.55;;;18.63;49.46
55517;BME280;41724;51.176;-0.708;2023-06-14T06:55:01;101217.61;;;18.75;49.49
55517;BME280;41724;51.176;-0.708;2023-06-14T06:57:29;101214.25;;;19.31;49.69
55517;BME280;41724;51.176;-0.708;2023-06-14T06:59:57;101211.95;;;18.57;50.32
55517;BME280;41724;51.176;-0.708;2023-06-14T07:02:24;101212.53;;;17.84;52.19
55517;BME280;41724;51.176;-0.708;2023-06-14T07:04:51;101210.03;;;18.00;52.10
55517;BME280;41724;51.176;-0.708;2023-06-14T07:07:18;101211.51;;;18.61;51.60
55517;BME280;41724;51.176;-0.708;2023-06-14T07:09:45;101206.17;;;18.91;50.20
55517;BME280;41724;51.176;-0.708;2023-06-14T07:12:11;101209.44;;;19.15;49.71
55517;BME280;41724;51.176;-0.708;2023-06-14T07:14:38;101207.68;;;19.54;48.90
55517;BME280;41724;51.176;-0.708;2023-06-14T07:17:05;101209.87;;;19.23;49.35
55517;BME280;41724;51.176;-0.708;2023-06-14T07:19:32;101213.53;;;19.70;49.13
55517;BME280;41724;51.176;-0.708;2023-06-14T07:21:59;101217.14;;;19.14;50.08
55517;BME280;41724;51.176;-0.708;2023-06-14T07:24:26;101216.41;;;19.53;48.75
55517;BME280;41724;51.176;-0.708;2023-06-14T07:26:53;101217.57;;;19.63;48.39
55517;BME280;41724;51.176;-0.708;2023-06-14T07:29:20;101225.40;;;19.60;49.22
55517;BME280;41724;51.176;-0.708;2023-06-14T07:31:47;101222.57;;;20.14;48.61
55517;BME280;41724;51.176;-0.708;2023-06-14T07:34:14;101220.48;;;20.37;47.83
55517;BME280;41724;51.176;-0.708;2023-06-14T07:36:41;101224.58;;;20.85;47.87
55517;BME280;41724;51.176;-0.708;2023-06-14T07:39:08;101224.03;;;20.99;47.12
55517;BME280;41724;51.176;-0.708;2023-06-14T07:41:35;101224.88;;;20.63;46.87
55517;BME280;41724;51.176;-0.708;2023-06-14T07:44:02;101227.02;;;21.15;47.02
55517;BME280;41724;51.176;-0.708;2023-06-14T07:46:29;101228.90;;;21.44;46.70
55517;BME280;41724;51.176;-0.708;2023-06-14T07:48:56;101228.32;;;20.93;47.20
55517;BME280;41724;51.176;-0.708;2023-06-14T07:51:23;101223.81;;;20.53;47.30
55517;BME280;41724;51.176;-0.708;2023-06-14T07:53:51;101224.64;;;20.91;47.04
55517;BME280;41724;51.176;-0.708;2023-06-14T07:56:18;101224.17;;;21.21;47.10
55517;BME280;41724;51.176;-0.708;2023-06-14T07:58:45;101223.94;;;21.20;46.76
55517;BME280;41724;51.176;-0.708;2023-06-14T08:01:12;101220.04;;;21.48;46.25
55517;BME280;41724;51.176;-0.708;2023-06-14T08:03:40;101222.39;;;21.17;46.96
55517;BME280;41724;51.176;-0.708;2023-06-14T08:06:07;101220.36;;;21.12;47.19
55517;BME280;41724;51.176;-0.708;2023-06-14T08:08:34;101223.38;;;21.55;46.47
55517;BME280;41724;51.176;-0.708;2023-06-14T08:11:01;101224.68;;;21.39;45.72
55517;BME280;41724;51.176;-0.708;2023-06-14T08:13:28;101226.12;;;21.93;46.07
55517;BME280;41724;51.176;-0.708;2023-06-14T08:15:55;101226.68;;;21.15;45.84
55517;BME280;41724;51.176;-0.708;2023-06-14T08:18:22;101227.86;;;21.97;46.31
55517;BME280;41724;51.176;-0.708;2023-06-14T08:20:49;101226.39;;;21.88;46.36
55517;BME280;41724;51.176;-0.708;2023-06-14T08:23:16;101226.06;;;21.65;45.58
55517;BME280;41724;51.176;-0.708;2023-06-14T08:25:43;101223.27;;;21.58;46.08
55517;BME280;41724;51.176;-0.708;2023-06-14T08:28:11;101221.01;;;21.75;46.34
55517;BME280;41724;51.176;-0.708;2023-06-14T08:30:38;101222.87;;;21.64;46.73
55517;BME280;41724;51.176;-0.708;2023-06-14T08:33:05;101220.53;;;22.11;46.38
55517;BME280;41724;51.176;-0.708;2023-06-14T08:35:32;101223.95;;;21.62;47.27
55517;BME280;41724;51.176;-0.708;2023-06-14T08:37:59;101219.73;;;21.15;48.39
55517;BME280;41724;51.176;-0.708;2023-06-14T08:40:27;101217.54;;;21.58;47.54
55517;BME280;41724;51.176;-0.708;2023-06-14T08:42:56;101218.38;;;22.02;46.27
55517;BME280;41724;51.176;-0.708;2023-06-14T08:45:24;101215.13;;;22.15;45.34
55517;BME280;41724;51.176;-0.708;2023-06-14T08:47:51;101218.30;;;22.41;45.08
55517;BME280;41724;51.176;-0.708;2023-06-14T08:50:21;101222.82;;;22.58;45.74
55517;BME280;41724;51.176;-0.708;2023-06-14T08:52:54;101219.91;;;22.83;44.71
55517;BME280;41724;51.176;-0.708;2023-06-14T08:55:22;101218.98;;;22.67;44.37
55517;BME280;41724;51.176;-0.708;2023-06-14T08:57:50;101219.47;;;22.95;44.92
55517;BME280;41724;51.176;-0.708;2023-06-14T09:00:18;101218.02;;;23.10;45.04
55517;BME280;41724;51.176;-0.708;2023-06-14T09:02:46;101222.68;;;23.12;44.40
55517;BME280;41724;51.176;-0.708;2023-06-14T09:05:13;101221.67;;;22.93;44.56
55517;BME280;41724;51.176;-0.708;2023-06-14T09:07:40;101225.27;;;23.15;44.36
55517;BME280;41724;51.176;-0.708;2023-06-14T09:10:09;101223.43;;;23.13;42.94
55517;BME280;41724;51.176;-0.708;2023-06-14T09:12:36;101224.39;;;23.08;43.57
55517;BME280;41724;51.176;-0.708;2023-06-14T09:15:05;101226.21;;;23.24;44.38
55517;BME280;41724;51.176;-0.708;2023-06-14T09:17:33;101227.66;;;23.44;43.61
55517;BME280;41724;51.176;-0.708;2023-06-14T09:20:00;101230.87;;;23.57;43.03
55517;BME280;41724;51.176;-0.708;2023-06-14T09:22:29;101236.77;;;23.12;43.45
55517;BME280;41724;51.176;-0.708;2023-06-14T09:24:56;101237.91;;;23.24;43.95
55517;BME280;41724;51.176;-0.708;2023-06-14T09:27:25;101238.31;;;23.64;43.27
55517;BME280;41724;51.176;-0.708;2023-06-14T09:29:52;101237.98;;;23.82;43.43
55517;BME280;41724;51.176;-0.708;2023-06-14T09:32:20;101233.64;;;23.98;42.97
55517;BME280;41724;51.176;-0.708;2023-06-14T09:34:48;101235.43;;;24.61;41.77
55517;BME280;41724;51.176;-0.708;2023-06-14T09:37:27;101238.52;;;24.26;42.04
55517;BME280;41724;51.176;-0.708;2023-06-14T09:39:55;101233.70;;;24.63;41.50
55517;BME280;41724;51.176;-0.708;2023-06-14T09:42:22;101232.13;;;24.46;41.95
55517;BME280;41724;51.176;-0.708;2023-06-14T09:44:49;101233.47;;;24.73;41.34
55517;BME280;41724;51.176;-0.708;2023-06-14T09:47:18;101232.61;;;24.83;41.86
55517;BME280;41724;51.176;-0.708;2023-06-14T09:49:46;101232.19;;;24.45;40.17
55517;BME280;41724;51.176;-0.708;2023-06-14T09:52:15;101230.98;;;24.81;39.33
55517;BME280;41724;51.176;-0.708;2023-06-14T09:54:43;101229.18;;;25.16;39.92
55517;BME280;41724;51.176;-0.708;2023-06-14T09:57:12;101230.18;;;25.28;40.23
55517;BME280;41724;51.176;-0.708;2023-06-14T09:59:42;101227.14;;;24.91;39.91
55517;BME280;41724;51.176;-0.708;2023-06-14T10:02:18;101227.34;;;24.75;39.58
55517;BME280;41724;51.176;-0.708;2023-06-14T10:04:57;101224.02;;;25.19;40.23
55517;BME280;41724;51.176;-0.708;2023-06-14T10:07:26;101224.12;;;24.86;39.60
55517;BME280;41724;51.176;-0.708;2023-06-14T10:09:54;101226.21;;;25.41;39.04
55517;BME280;41724;51.176;-0.708;2023-06-14T10:12:21;101221.22;;;25.06;39.50
55517;BME280;41724;51.176;-0.708;2023-06-14T10:14:50;101219.13;;;25.47;38.62
55517;BME280;41724;51.176;-0.708;2023-06-14T10:17:26;101224.39;;;25.83;39.64
55517;BME280;41724;51.176;-0.708;2023-06-14T10:20:06;101220.43;;;25.86;37.64
55517;BME280;41724;51.176;-0.708;2023-06-14T10:22:42;101214.26;;;25.61;37.83
55517;BME280;41724;51.176;-0.708;2023-06-14T10:25:13;101211.93;;;26.26;37.09
55517;BME280;41724;51.176;-0.708;2023-06-14T10:27:52;101204.32;;;26.29;36.39
55517;BME280;41724;51.176;-0.708;2023-06-14T10:30:25;101205.89;;;26.60;37.08
55517;BME280;41724;51.176;-0.708;2023-06-14T10:33:08;101213.08;;;26.97;35.94
55517;BME280;41724;51.176;-0.708;2023-06-14T10:35:35;101212.94;;;26.45;35.37
55517;BME280;41724;51.176;-0.708;2023-06-14T10:38:11;101211.96;;;26.97;35.08
55517;BME280;41724;51.176;-0.708;2023-06-14T10:40:40;101208.44;;;26.83;35.31
55517;BME280;41724;51.176;-0.708;2023-06-14T10:43:23;101209.29;;;27.34;36.45
55517;BME280;41724;51.176;-0.708;2023-06-14T10:46:29;101209.35;;;27.61;34.14
55517;BME280;41724;51.176;-0.708;2023-06-14T10:48:57;101209.29;;;27.97;33.12
55517;BME280;41724;51.176;-0.708;2023-06-14T10:51:24;101209.66;;;27.31;33.42
55517;BME280;41724;51.176;-0.708;2023-06-14T10:53:51;101210.40;;;26.59;33.55
55517;BME280;41724;51.176;-0.708;2023-06-14T10:56:34;101208.08;;;27.49;33.85
55517;BME280;41724;51.176;-0.708;2023-06-14T10:59:01;101204.07;;;28.09;34.02
55517;BME280;41724;51.176;-0.708;2023-06-14T11:01:35;101202.20;;;28.10;33.48
55517;BME280;41724;51.176;-0.708;2023-06-14T11:04:09;101200.10;;;28.40;32.64
55517;BME280;41724;51.176;-0.708;2023-06-14T11:06:47;101199.02;;;27.97;31.92
55517;BME280;41724;51.176;-0.708;2023-06-14T11:09:38;101203.51;;;28.55;32.74
55517;BME280;41724;51.176;-0.708;2023-06-14T11:12:14;101193.99;;;29.33;30.99
55517;BME280;41724;51.176;-0.708;2023-06-14T11:14:42;101193.27;;;29.39;31.58
55517;BME280;41724;51.176;-0.708;2023-06-14T11:17:13;101191.44;;;29.06;32.08
55517;BME280;41724;51.176;-0.708;2023-06-14T11:19:41;101191.21;;;29.37;30.62
55517;BME280;41724;51.176;-0.708;2023-06-14T11:22:07;101190.90;;;29.12;30.69
55517;BME280;41724;51.176;-0.708;2023-06-14T11:24:34;101188.91;;;29.11;29.48
55517;BME280;41724;51.176;-0.708;2023-06-14T11:27:02;101188.24;;;29.66;28.75
55517;BME280;41724;51.176;-0.708;2023-06-14T11:29:29;101179.39;;;30.32;28.94
55517;BME280;41724;51.176;-0.708;2023-06-14T11:31:56;101172.84;;;30.41;27.76
55517;BME280;41724;51.176;-0.708;2023-06-14T11:34:24;101173.02;;;30.27;28.02
55517;BME280;41724;51.176;-0.708;2023-06-14T11:36:51;101177.75;;;30.28;27.16
55517;BME280;41724;51.176;-0.708;2023-06-14T11:39:25;101179.24;;;30.93;27.67
55517;BME280;41724;51.176;-0.708;2023-06-14T11:41:52;101179.17;;;30.01;26.74
55517;BME280;41724;51.176;-0.708;2023-06-14T11:44:19;101171.02;;;30.09;26.04
55517;BME280;41724;51.176;-0.708;2023-06-14T11:46:46;101170.14;;;30.84;27.88
55517;BME280;41724;51.176;-0.708;2023-06-14T11:49:13;101167.73;;;31.79;26.84
55517;BME280;41724;51.176;-0.708;2023-06-14T11:51:43;101164.51;;;31.02;26.32
55517;BME280;41724;51.176;-0.708;2023-06-14T11:54:10;101158.99;;;30.93;26.38
55517;BME280;41724;51.176;-0.708;2023-06-14T11:56:37;101157.18;;;31.14;26.25
55517;BME280;41724;51.176;-0.708;2023-06-14T11:59:05;101157.62;;;30.83;26.35
55517;BME280;41724;51.176;-0.708;2023-06-14T12:01:35;101155.31;;;31.25;26.31
55517;BME280;41724;51.176;-0.708;2023-06-14T12:04:03;101157.48;;;32.05;22.61
55517;BME280;41724;51.176;-0.708;2023-06-14T12:06:31;101155.18;;;31.71;21.52
55517;BME280;41724;51.176;-0.708;2023-06-14T12:08:58;101151.11;;;32.56;21.01
55517;BME280;41724;51.176;-0.708;2023-06-14T12:11:35;101148.53;;;32.28;21.45
55517;BME280;41724;51.176;-0.708;2023-06-14T12:14:03;101150.95;;;32.42;20.77
55517;BME280;41724;51.176;-0.708;2023-06-14T12:16:32;101147.94;;;32.24;21.96
55517;BME280;41724;51.176;-0.708;2023-06-14T12:19:08;101145.70;;;33.29;20.19
55517;BME280;41724;51.176;-0.708;2023-06-14T12:21:37;101150.06;;;33.09;19.55
55517;BME280;41724;51.176;-0.708;2023-06-14T12:24:05;101150.05;;;33.00;20.16
55517;BME280;41724;51.176;-0.708;2023-06-14T12:26:32;101144.53;;;33.49;19.68
55517;BME280;41724;51.176;-0.708;2023-06-14T12:29:05;101149.92;;;33.69;19.51
55517;BME280;41724;51.176;-0.708;2023-06-14T12:31:32;101144.52;;;34.20;17.87
55517;BME280;41724;51.176;-0.708;2023-06-14T12:33:59;101142.97;;;34.05;18.40
55517;BME280;41724;51.176;-0.708;2023-06-14T12:36:27;101136.81;;;34.68;18.54
55517;BME280;41724;51.176;-0.708;2023-06-14T12:38:54;101141.10;;;34.38;17.94
55517;BME280;41724;51.176;-0.708;2023-06-14T12:41:22;101138.37;;;34.51;17.66
55517;BME280;41724;51.176;-0.708;2023-06-14T12:43:49;101142.56;;;34.59;16.97
55517;BME280;41724;51.176;-0.708;2023-06-14T12:46:17;101142.80;;;36.16;17.32